Terminal Aerodrome Forecast
Issued by NWS Austin/San Antonio, TX

Home | Current Version | Previous Version | Text Only | Print | Product List | Glossary On
Versions: 1 2 3 4 5 6 7 8 9 10 11 12 13 14 15 16 17 18 19 20 21 22
041
FTUS44 KEWX 200522
TAFSAT
TAF
KSAT 200522Z 2006/2112 15009KT P6SM SCT060 BKN250
     FM200700 16007KT P6SM BKN012
     FM201500 17011KT P6SM BKN025
     FM201630 16012KT P6SM SCT040
     FM210700 15008KT P6SM BKN012=

USA.gov is the U.S. government's official web portal to all federal, state and local government web resources and services.